createdAt,value
2018-12-22T00:00:45.892Z,0.00
2018-12-22T00:01:45.884Z,0.00
2018-12-22T00:02:45.872Z,0.00
2018-12-22T00:03:45.865Z,0.00
2018-12-22T00:04:45.885Z,0.00
2018-12-22T00:05:45.838Z,0.00
2018-12-22T00:06:45.831Z,0.00
2018-12-22T00:07:45.818Z,0.00
2018-12-22T00:08:45.808Z,0.00
2018-12-22T00:09:45.796Z,0.00
2018-12-22T00:10:45.823Z,0.00
2018-12-22T00:11:45.776Z,0.00
2018-12-22T00:12:45.768Z,0.00
2018-12-22T00:13:45.752Z,0.00
2018-12-22T00:14:45.742Z,0.00
2018-12-22T00:15:45.732Z,0.00
2018-12-22T00:16:45.866Z,0.00
2018-12-22T00:17:45.709Z,0.00
2018-12-22T00:18:45.699Z,0.00
2018-12-22T00:19:45.689Z,4.00
2018-12-22T00:20:45.677Z,4.00
2018-12-22T00:21:45.667Z,0.00
2018-12-22T00:22:45.695Z,0.00
2018-12-22T00:23:45.646Z,0.00
2018-12-22T00:24:45.635Z,0.00
2018-12-22T00:25:45.628Z,0.00
2018-12-22T00:26:45.611Z,0.00
2018-12-22T00:27:45.602Z,0.00
2018-12-22T00:28:45.628Z,0.00
2018-12-22T00:29:45.579Z,0.00
2018-12-22T00:30:45.571Z,0.00
2018-12-22T00:31:45.560Z,0.00
2018-12-22T00:32:45.548Z,0.00
2018-12-22T00:33:45.539Z,0.00
2018-12-22T00:34:45.565Z,0.00
2018-12-22T00:35:45.523Z,0.00
2018-12-22T00:36:45.508Z,0.00
2018-12-22T00:37:45.496Z,0.00
2018-12-22T00:38:45.481Z,0.00
2018-12-22T00:39:45.473Z,0.00
2018-12-22T00:40:45.500Z,0.00
2018-12-22T00:41:45.451Z,0.00
2018-12-22T00:42:45.440Z,0.00
2018-12-22T00:43:45.428Z,0.00
2018-12-22T00:44:45.419Z,0.00
2018-12-22T00:45:45.418Z,0.00
2018-12-22T00:46:45.433Z,0.00
2018-12-22T00:47:45.386Z,0.00
2018-12-22T00:48:45.378Z,0.00
2018-12-22T00:49:45.377Z,0.00
2018-12-22T00:50:45.365Z,0.00
2018-12-22T00:51:45.343Z,0.00
2018-12-22T00:52:45.372Z,0.00
2018-12-22T00:53:45.320Z,0.00
2018-12-22T00:54:45.312Z,0.00
2018-12-22T00:55:45.301Z,0.00
2018-12-22T00:56:45.289Z,0.00
2018-12-22T00:57:45.280Z,0.00
2018-12-22T00:58:45.310Z,0.00
2018-12-22T00:59:45.259Z,0.00
2018-12-22T01:00:45.247Z,0.00
2018-12-22T01:01:45.235Z,4.00
2018-12-22T01:02:45.227Z,0.00
2018-12-22T01:03:45.216Z,4.00
2018-12-22T01:04:45.239Z,4.00
2018-12-22T01:05:45.195Z,4.00
2018-12-22T01:06:45.184Z,4.00
2018-12-22T01:07:45.172Z,4.00
2018-12-22T01:08:45.162Z,0.00
2018-12-22T01:09:45.151Z,0.00
2018-12-22T01:10:45.177Z,0.00
2018-12-22T01:11:45.129Z,0.00
2018-12-22T01:12:45.118Z,0.00
2018-12-22T01:13:45.108Z,0.00
2018-12-22T01:14:45.100Z,0.00
2018-12-22T01:15:45.086Z,0.00
2018-12-22T01:16:45.113Z,0.00
2018-12-22T01:17:45.069Z,0.00
2018-12-22T01:18:45.054Z,0.00
2018-12-22T01:19:45.045Z,0.00
2018-12-22T01:20:45.035Z,0.00
2018-12-22T01:21:45.022Z,0.00
2018-12-22T01:22:45.048Z,0.00
2018-12-22T01:23:45.001Z,0.00
2018-12-22T01:24:44.990Z,0.00
2018-12-22T01:25:44.985Z,0.00
2018-12-22T01:26:44.968Z,0.00
2018-12-22T01:27:44.958Z,0.00
2018-12-22T01:28:44.983Z,0.00
2018-12-22T01:29:44.935Z,0.00
2018-12-22T01:30:44.924Z,0.00
2018-12-22T01:31:44.913Z,0.00
2018-12-22T01:32:44.904Z,0.00
2018-12-22T01:33:44.892Z,0.00
2018-12-22T01:34:44.922Z,0.00
2018-12-22T01:35:44.875Z,0.00
2018-12-22T01:36:44.865Z,0.00
2018-12-22T01:37:44.851Z,0.00
2018-12-22T01:38:44.840Z,0.00
2018-12-22T01:39:44.831Z,0.00
2018-12-22T01:40:44.855Z,0.00
2018-12-22T01:41:44.808Z,0.00
2018-12-22T01:42:44.796Z,0.00
2018-12-22T01:43:44.785Z,0.00
2018-12-22T01:44:44.773Z,0.00
2018-12-22T01:45:44.764Z,0.00
2018-12-22T01:46:44.790Z,0.00
2018-12-22T01:47:44.746Z,0.00
2018-12-22T01:48:44.732Z,0.00
2018-12-22T01:49:44.721Z,0.00
2018-12-22T01:50:44.710Z,0.00
2018-12-22T01:51:44.699Z,0.00
2018-12-22T01:52:44.725Z,0.00
2018-12-22T01:53:44.678Z,0.00
2018-12-22T01:54:44.667Z,0.00
2018-12-22T01:55:44.657Z,0.00
2018-12-22T01:56:44.649Z,0.00
2018-12-22T01:57:44.635Z,0.00
2018-12-22T01:58:47.895Z,0.00
2018-12-22T01:59:44.615Z,0.00
2018-12-22T02:00:44.603Z,0.00
2018-12-22T02:01:44.593Z,0.00
2018-12-22T02:02:44.579Z,0.00
2018-12-22T02:03:44.571Z,0.00
2018-12-22T02:04:44.598Z,0.00
2018-12-22T02:05:44.550Z,0.00
2018-12-22T02:06:44.539Z,0.00
2018-12-22T02:07:44.534Z,0.00
2018-12-22T02:08:44.517Z,0.00
2018-12-22T02:09:44.517Z,0.00
2018-12-22T02:10:44.530Z,0.00
2018-12-22T02:11:44.485Z,0.00
2018-12-22T02:12:44.519Z,0.00
2018-12-22T02:13:44.462Z,0.00
2018-12-22T02:14:44.452Z,0.00
2018-12-22T02:15:44.444Z,0.00
2018-12-22T02:16:44.469Z,0.00
2018-12-22T02:17:44.425Z,0.00
2018-12-22T02:18:44.413Z,0.00
2018-12-22T02:19:44.399Z,0.00
2018-12-22T02:20:44.390Z,0.00
2018-12-22T02:21:44.378Z,0.00
2018-12-22T02:22:44.406Z,0.00
2018-12-22T02:23:44.356Z,0.00
2018-12-22T02:24:44.347Z,0.00
2018-12-22T02:25:44.333Z,0.00
2018-12-22T02:26:44.325Z,0.00
2018-12-22T02:27:44.317Z,0.00
2018-12-22T02:28:44.340Z,0.00
2018-12-22T02:29:44.291Z,0.00
2018-12-22T02:30:44.282Z,0.00
2018-12-22T02:31:44.286Z,0.00
2018-12-22T02:32:44.262Z,0.00
2018-12-22T02:33:44.248Z,0.00
2018-12-22T02:34:44.277Z,0.00
2018-12-22T02:35:44.231Z,0.00
2018-12-22T02:36:44.218Z,0.00
2018-12-22T02:37:44.206Z,0.00
2018-12-22T02:38:44.197Z,0.00
2018-12-22T02:39:44.187Z,0.00
2018-12-22T02:40:44.209Z,0.00
2018-12-22T02:41:44.164Z,0.00
2018-12-22T02:42:44.157Z,0.00
2018-12-22T02:43:44.140Z,0.00
2018-12-22T02:44:44.132Z,0.00
2018-12-22T02:45:44.121Z,0.00
2018-12-22T02:46:44.156Z,0.00
2018-12-22T02:47:44.096Z,0.00
2018-12-22T02:48:44.087Z,0.00
2018-12-22T02:49:44.075Z,0.00
2018-12-22T02:50:44.066Z,0.00
2018-12-22T02:51:44.055Z,0.00
2018-12-22T02:52:44.085Z,0.00
2018-12-22T02:53:44.033Z,0.00
2018-12-22T02:54:44.020Z,0.00
2018-12-22T02:55:44.010Z,0.00
2018-12-22T02:56:44.000Z,0.00
2018-12-22T02:57:43.989Z,0.00
2018-12-22T02:58:44.013Z,0.00
2018-12-22T02:59:43.971Z,0.00
2018-12-22T03:00:43.956Z,0.00
2018-12-22T03:01:43.945Z,0.00
2018-12-22T03:02:43.937Z,0.00
2018-12-22T03:03:43.924Z,0.00
2018-12-22T03:04:43.954Z,0.00
2018-12-22T03:05:43.902Z,0.00
2018-12-22T03:06:43.891Z,0.00
2018-12-22T03:07:43.889Z,0.00
2018-12-22T03:08:43.871Z,0.00
2018-12-22T03:09:43.861Z,0.00
2018-12-22T03:10:43.887Z,0.00
2018-12-22T03:11:43.838Z,0.00
2018-12-22T03:12:43.826Z,0.00
2018-12-22T03:13:43.816Z,0.00
2018-12-22T03:14:43.813Z,0.00
2018-12-22T03:15:43.799Z,0.00
2018-12-22T03:16:43.819Z,0.00
2018-12-22T03:17:43.772Z,0.00
2018-12-22T03:18:43.759Z,0.00
2018-12-22T03:19:43.754Z,0.00
2018-12-22T03:20:43.739Z,0.00
2018-12-22T03:21:43.734Z,0.00
2018-12-22T03:22:43.753Z,0.00
2018-12-22T03:23:43.709Z,0.00
2018-12-22T03:24:43.696Z,0.00
2018-12-22T03:25:43.686Z,0.00
2018-12-22T03:26:43.674Z,0.00
2018-12-22T03:27:43.662Z,0.00
2018-12-22T03:28:43.690Z,0.00
2018-12-22T03:29:43.642Z,0.00
2018-12-22T03:30:43.631Z,0.00
2018-12-22T03:31:43.629Z,0.00
2018-12-22T03:32:43.611Z,0.00
2018-12-22T03:33:43.597Z,0.00
2018-12-22T03:34:43.625Z,0.00
2018-12-22T03:35:43.574Z,0.00
2018-12-22T03:36:43.565Z,0.00
2018-12-22T03:37:43.556Z,0.00
2018-12-22T03:38:43.540Z,0.00
2018-12-22T03:39:43.532Z,0.00
2018-12-22T03:40:43.558Z,0.00
2018-12-22T03:41:43.510Z,0.00
2018-12-22T03:42:43.498Z,0.00
2018-12-22T03:43:43.487Z,0.00
2018-12-22T03:44:43.481Z,0.00
2018-12-22T03:45:43.465Z,0.00
2018-12-22T03:46:43.492Z,0.00
2018-12-22T03:47:43.448Z,0.00
2018-12-22T03:48:43.436Z,0.00
2018-12-22T03:49:43.425Z,0.00
2018-12-22T03:50:43.412Z,0.00
2018-12-22T03:51:43.399Z,0.00
2018-12-22T03:52:43.423Z,0.00
2018-12-22T03:53:43.376Z,0.00
2018-12-22T03:54:43.367Z,0.00
2018-12-22T03:55:43.357Z,0.00
2018-12-22T03:56:43.345Z,0.00
2018-12-22T03:57:43.336Z,0.00
2018-12-22T03:58:43.359Z,0.00
2018-12-22T03:59:43.312Z,0.00
2018-12-22T04:00:43.304Z,0.00
2018-12-22T04:01:43.297Z,0.00
2018-12-22T04:02:43.278Z,0.00
2018-12-22T04:03:43.270Z,0.00
2018-12-22T04:04:43.292Z,0.00
2018-12-22T04:05:43.247Z,0.00
2018-12-22T04:06:43.236Z,0.00
2018-12-22T04:07:43.232Z,0.00
2018-12-22T04:08:43.212Z,0.00
2018-12-22T04:09:43.204Z,0.00
2018-12-22T04:10:43.231Z,0.00
2018-12-22T04:11:43.180Z,0.00
2018-12-22T04:12:43.171Z,0.00
2018-12-22T04:13:43.157Z,0.00
2018-12-22T04:14:43.145Z,0.00
2018-12-22T04:15:43.134Z,0.00
2018-12-22T04:16:43.159Z,0.00
2018-12-22T04:17:43.114Z,0.00
2018-12-22T04:18:43.101Z,0.00
2018-12-22T04:19:43.097Z,0.00
2018-12-22T04:20:43.080Z,0.00
2018-12-22T04:21:43.070Z,0.00
2018-12-22T04:22:43.091Z,0.00
2018-12-22T04:23:43.046Z,0.00
2018-12-22T04:24:43.035Z,0.00
2018-12-22T04:25:43.024Z,0.00
2018-12-22T04:26:43.013Z,0.00
2018-12-22T04:27:43.008Z,0.00
2018-12-22T04:28:43.017Z,0.00
2018-12-22T04:29:42.981Z,0.00
2018-12-22T04:30:42.971Z,0.00
2018-12-22T04:31:42.961Z,0.00
2018-12-22T04:32:42.949Z,0.00
2018-12-22T04:33:42.962Z,0.00
2018-12-22T04:34:42.925Z,0.00
2018-12-22T04:35:42.915Z,0.00
2018-12-22T04:36:42.903Z,0.00
2018-12-22T04:37:42.890Z,0.00
2018-12-22T04:38:42.906Z,0.00
2018-12-22T04:39:42.873Z,0.00
2018-12-22T04:40:42.857Z,0.00
2018-12-22T04:41:42.848Z,0.00
2018-12-22T04:42:42.848Z,0.00
2018-12-22T04:43:42.852Z,0.00
2018-12-22T04:44:42.821Z,0.00
2018-12-22T04:45:42.804Z,0.00
2018-12-22T04:46:42.792Z,0.00
2018-12-22T04:47:42.793Z,0.00
2018-12-22T04:48:42.829Z,0.00
2018-12-22T04:49:42.761Z,0.00
2018-12-22T04:50:42.749Z,0.00
2018-12-22T04:51:42.737Z,0.00
2018-12-22T04:52:42.729Z,0.00
2018-12-22T04:53:42.751Z,0.00
2018-12-22T04:54:42.704Z,0.00
2018-12-22T04:55:42.695Z,0.00
2018-12-22T04:56:42.681Z,0.00
2018-12-22T04:57:42.673Z,0.00
2018-12-22T04:58:42.683Z,0.00
2018-12-22T04:59:43.175Z,0.00
2018-12-22T05:00:42.640Z,0.00
2018-12-22T05:01:42.634Z,0.00
2018-12-22T05:02:42.618Z,0.00
2018-12-22T05:03:42.631Z,0.00
2018-12-22T05:04:42.595Z,0.00
2018-12-22T05:05:42.584Z,0.00
2018-12-22T05:06:42.572Z,0.00
2018-12-22T05:07:42.565Z,0.00
2018-12-22T05:08:42.577Z,0.00
2018-12-22T05:09:42.542Z,0.00
2018-12-22T05:10:42.529Z,0.00
2018-12-22T05:11:42.549Z,0.00
2018-12-22T05:12:42.507Z,0.00
2018-12-22T05:13:42.522Z,0.00
2018-12-22T05:14:42.485Z,0.00
2018-12-22T05:15:42.475Z,0.00
2018-12-22T05:16:42.465Z,0.00
2018-12-22T05:17:42.455Z,0.00
2018-12-22T05:18:42.467Z,0.00
2018-12-22T05:19:42.437Z,0.00
2018-12-22T05:20:42.421Z,0.00
2018-12-22T05:21:42.410Z,0.00
2018-12-22T05:22:42.398Z,0.00
2018-12-22T05:23:42.414Z,0.00
2018-12-22T05:24:42.378Z,0.00
2018-12-22T05:25:42.367Z,0.00
2018-12-22T05:26:42.355Z,0.00
2018-12-22T05:27:42.344Z,0.00
2018-12-22T05:28:42.359Z,0.00
2018-12-22T05:29:42.323Z,0.00
2018-12-22T05:30:42.314Z,0.00
2018-12-22T05:31:42.302Z,0.00
2018-12-22T05:32:42.317Z,0.00
2018-12-22T05:33:42.282Z,0.00
2018-12-22T05:34:42.270Z,0.00
2018-12-22T05:35:42.259Z,0.00
2018-12-22T05:36:42.248Z,0.00
2018-12-22T05:37:42.264Z,0.00
2018-12-22T05:38:42.233Z,0.00
2018-12-22T05:39:42.218Z,0.00
2018-12-22T05:40:42.206Z,0.00
2018-12-22T05:41:42.197Z,0.00
2018-12-22T05:42:42.209Z,0.00
2018-12-22T05:43:42.175Z,0.00
2018-12-22T05:44:42.164Z,0.00
2018-12-22T05:45:42.168Z,0.00
2018-12-22T05:46:42.142Z,0.00
2018-12-22T05:47:42.157Z,0.00
2018-12-22T05:48:42.123Z,0.00
2018-12-22T05:49:42.111Z,0.00
2018-12-22T05:50:42.116Z,0.00
2018-12-22T05:51:42.089Z,0.00
2018-12-22T05:52:42.103Z,0.00
2018-12-22T05:53:42.078Z,0.00
2018-12-22T05:54:42.063Z,0.00
2018-12-22T05:55:42.045Z,0.00
2018-12-22T05:56:42.035Z,0.00
2018-12-22T05:57:42.050Z,0.00
2018-12-22T05:58:42.020Z,0.00
2018-12-22T05:59:42.006Z,0.00
2018-12-22T06:00:41.996Z,0.00
2018-12-22T06:01:41.985Z,0.00
2018-12-22T06:02:41.995Z,0.00
2018-12-22T06:03:41.963Z,0.00
2018-12-22T06:04:41.950Z,0.00
2018-12-22T06:05:41.942Z,0.00
2018-12-22T06:06:41.928Z,0.00
2018-12-22T06:07:41.943Z,0.00
2018-12-22T06:08:41.908Z,0.00
2018-12-22T06:09:41.898Z,0.00
2018-12-22T06:10:41.888Z,0.00
2018-12-22T06:11:41.882Z,0.00
2018-12-22T06:12:41.891Z,0.00
2018-12-22T06:13:41.853Z,0.00
2018-12-22T06:14:41.845Z,0.00
2018-12-22T06:15:41.833Z,0.00
2018-12-22T06:16:41.821Z,0.00
2018-12-22T06:17:41.917Z,0.00
2018-12-22T06:18:41.799Z,0.00
2018-12-22T06:19:41.789Z,0.00
2018-12-22T06:20:41.777Z,0.00
2018-12-22T06:21:41.769Z,0.00
2018-12-22T06:22:41.781Z,0.00
2018-12-22T06:23:41.884Z,0.00
2018-12-22T06:24:41.735Z,0.00
2018-12-22T06:25:41.726Z,0.00
2018-12-22T06:26:41.722Z,0.00
2018-12-22T06:27:41.732Z,0.00
2018-12-22T06:28:41.698Z,0.00
2018-12-22T06:29:41.685Z,0.00
2018-12-22T06:30:41.686Z,0.00
2018-12-22T06:31:41.663Z,0.00
2018-12-22T06:32:41.679Z,0.00
2018-12-22T06:33:41.649Z,0.00
2018-12-22T06:34:41.631Z,0.00
2018-12-22T06:35:41.619Z,0.00
2018-12-22T06:36:41.610Z,0.00
2018-12-22T06:37:41.630Z,0.00
2018-12-22T06:38:41.604Z,0.00
2018-12-22T06:39:41.584Z,0.00
2018-12-22T06:40:41.566Z,0.00
2018-12-22T06:41:41.558Z,0.00
2018-12-22T06:42:41.583Z,0.00
2018-12-22T06:43:41.575Z,0.00
2018-12-22T06:44:41.534Z,0.00
2018-12-22T06:45:41.519Z,0.00
2018-12-22T06:46:41.509Z,0.00
2018-12-22T06:47:41.499Z,0.00
2018-12-22T06:48:41.481Z,0.00
2018-12-22T06:49:41.506Z,0.00
2018-12-22T06:50:41.463Z,0.00
2018-12-22T06:51:41.449Z,0.00
2018-12-22T06:52:41.448Z,0.00
2018-12-22T06:53:42.105Z,0.00
2018-12-22T06:54:41.418Z,0.00
2018-12-22T06:55:41.432Z,0.00
2018-12-22T06:56:41.400Z,4.00
2018-12-22T06:57:41.387Z,4.00
2018-12-22T06:58:41.376Z,0.00
2018-12-22T06:59:41.366Z,4.00
2018-12-22T07:00:41.379Z,4.00
2018-12-22T07:01:41.344Z,4.00
2018-12-22T07:02:41.334Z,4.00
2018-12-22T07:03:41.323Z,8.00
2018-12-22T07:04:41.313Z,8.00
2018-12-22T07:05:41.338Z,8.00
2018-12-22T07:06:41.292Z,16.00
2018-12-22T07:07:41.280Z,12.00
2018-12-22T07:08:41.269Z,16.00
2018-12-22T07:09:41.261Z,16.00
2018-12-22T07:10:41.251Z,16.00
2018-12-22T07:11:41.276Z,24.00
2018-12-22T07:12:41.228Z,28.00
2018-12-22T07:13:41.217Z,32.00
2018-12-22T07:14:41.210Z,32.00
2018-12-22T07:15:41.196Z,36.00
2018-12-22T07:16:41.188Z,40.00
2018-12-22T07:17:41.210Z,44.00
2018-12-22T07:18:41.165Z,44.00
2018-12-22T07:19:41.165Z,44.00
2018-12-22T07:20:41.145Z,44.00
2018-12-22T07:21:41.134Z,48.00
2018-12-22T07:22:41.123Z,56.00
2018-12-22T07:23:41.151Z,56.00
2018-12-22T07:24:41.100Z,60.00
2018-12-22T07:25:41.090Z,60.00
2018-12-22T07:26:41.082Z,64.00
2018-12-22T07:27:41.071Z,68.00
2018-12-22T07:28:41.058Z,68.00
2018-12-22T07:29:41.085Z,68.00
2018-12-22T07:30:41.037Z,72.00
2018-12-22T07:31:41.028Z,64.00
2018-12-22T07:32:41.016Z,56.00
2018-12-22T07:33:41.009Z,56.00
2018-12-22T07:34:40.995Z,60.00
2018-12-22T07:35:41.011Z,52.00
2018-12-22T07:36:40.978Z,52.00
2018-12-22T07:37:40.967Z,56.00
2018-12-22T07:38:40.952Z,56.00
2018-12-22T07:39:40.944Z,64.00
2018-12-22T07:40:40.958Z,72.00
2018-12-22T07:41:40.922Z,68.00
2018-12-22T07:42:40.910Z,68.00
2018-12-22T07:43:40.907Z,80.00
2018-12-22T07:44:40.890Z,104.00
2018-12-22T07:45:40.916Z,108.00
2018-12-22T07:46:40.869Z,104.00
2018-12-22T07:47:40.857Z,108.00
2018-12-22T07:48:40.847Z,112.00
2018-12-22T07:49:40.836Z,108.00
2018-12-22T07:50:40.824Z,108.00
2018-12-22T07:51:40.851Z,96.00
2018-12-22T07:52:40.802Z,124.00
2018-12-22T07:53:40.792Z,160.00
2018-12-22T07:54:40.784Z,176.00
2018-12-22T07:55:40.775Z,184.00
2018-12-22T07:56:40.776Z,188.00
2018-12-22T07:57:40.789Z,188.00
2018-12-22T07:58:40.743Z,184.00
2018-12-22T07:59:40.734Z,176.00
2018-12-22T08:00:40.731Z,200.00
2018-12-22T08:01:40.719Z,208.00
2018-12-22T08:02:40.701Z,184.00
2018-12-22T08:03:40.729Z,164.00
2018-12-22T08:04:40.678Z,156.00
2018-12-22T08:05:40.673Z,136.00
2018-12-22T08:06:40.654Z,128.00
2018-12-22T08:07:40.644Z,116.00
2018-12-22T08:08:40.634Z,120.00
2018-12-22T08:09:40.659Z,140.00
2018-12-22T08:10:40.611Z,144.00
2018-12-22T08:11:40.601Z,152.00
2018-12-22T08:12:40.591Z,136.00
2018-12-22T08:13:40.583Z,140.00
2018-12-22T08:14:40.570Z,152.00
2018-12-22T08:15:40.586Z,160.00
2018-12-22T08:16:40.549Z,144.00
2018-12-22T08:17:40.546Z,156.00
2018-12-22T08:18:40.529Z,188.00
2018-12-22T08:19:40.524Z,196.00
2018-12-22T08:20:40.544Z,180.00
2018-12-22T08:21:40.497Z,176.00
2018-12-22T08:22:40.486Z,180.00
2018-12-22T08:23:40.475Z,168.00
2018-12-22T08:24:40.464Z,188.00
2018-12-22T08:25:40.515Z,204.00
2018-12-22T08:26:40.771Z,220.00
2018-12-22T08:27:43.379Z,196.00
2018-12-22T08:28:41.340Z,176.00
2018-12-22T08:29:40.487Z,180.00
2018-12-22T08:30:43.987Z,192.00
2018-12-22T08:31:43.260Z,180.00
2018-12-22T08:32:40.501Z,196.00
2018-12-22T08:33:40.373Z,212.00
2018-12-22T08:34:40.359Z,256.00
2018-12-22T08:35:40.352Z,288.00
2018-12-22T08:36:40.337Z,248.00
2018-12-22T08:37:40.366Z,228.00
2018-12-22T08:38:40.317Z,244.00
2018-12-22T08:39:40.316Z,204.00
2018-12-22T08:40:40.327Z,188.00
2018-12-22T08:41:40.286Z,232.00
2018-12-22T08:42:40.287Z,296.00
2018-12-22T08:43:40.304Z,300.00
2018-12-22T08:44:40.255Z,244.00
2018-12-22T08:45:40.242Z,232.00
2018-12-22T08:46:40.242Z,256.00
2018-12-22T08:47:40.227Z,240.00
2018-12-22T08:48:40.214Z,240.00
2018-12-22T08:49:40.239Z,220.00
2018-12-22T08:50:40.190Z,304.00
2018-12-22T08:51:40.190Z,400.00
2018-12-22T08:52:40.172Z,328.00
2018-12-22T08:53:40.161Z,276.00
2018-12-22T08:54:40.150Z,364.00
2018-12-22T08:55:40.164Z,352.00
2018-12-22T08:56:40.133Z,340.00
2018-12-22T08:57:40.116Z,364.00
2018-12-22T08:58:40.112Z,364.00
2018-12-22T08:59:40.098Z,388.00
2018-12-22T09:00:40.112Z,416.00
2018-12-22T09:01:40.078Z,372.00
2018-12-22T09:02:40.064Z,332.00
2018-12-22T09:03:40.052Z,308.00
2018-12-22T09:04:40.043Z,436.00
2018-12-22T09:05:40.072Z,632.00
2018-12-22T09:06:40.021Z,608.00
2018-12-22T09:07:40.011Z,616.00
2018-12-22T09:08:39.998Z,648.00
2018-12-22T09:09:39.989Z,576.00
2018-12-22T09:10:39.984Z,604.00
2018-12-22T09:11:40.071Z,552.00
2018-12-22T09:12:39.958Z,536.00
2018-12-22T09:13:39.946Z,504.00
2018-12-22T09:14:39.937Z,420.00
2018-12-22T09:15:39.925Z,332.00
2018-12-22T09:16:39.915Z,300.00
2018-12-22T09:17:39.940Z,272.00
2018-12-22T09:18:39.894Z,236.00
2018-12-22T09:19:39.884Z,232.00
2018-12-22T09:20:39.874Z,224.00
2018-12-22T09:21:39.864Z,212.00
2018-12-22T09:22:39.854Z,172.00
2018-12-22T09:23:39.878Z,152.00
2018-12-22T09:24:39.832Z,140.00
2018-12-22T09:25:39.822Z,136.00
2018-12-22T09:26:39.816Z,148.00
2018-12-22T09:27:39.800Z,216.00
2018-12-22T09:28:39.795Z,272.00
2018-12-22T09:29:39.817Z,260.00
2018-12-22T09:30:39.771Z,240.00
2018-12-22T09:31:39.758Z,200.00
2018-12-22T09:32:39.746Z,192.00
2018-12-22T09:33:39.737Z,168.00
2018-12-22T09:34:39.724Z,168.00
2018-12-22T09:35:39.742Z,172.00
2018-12-22T09:36:39.705Z,172.00
2018-12-22T09:37:39.697Z,184.00
2018-12-22T09:38:39.684Z,184.00
2018-12-22T09:39:39.673Z,168.00
2018-12-22T09:40:39.712Z,176.00
2018-12-22T09:41:39.653Z,268.00
2018-12-22T09:42:39.643Z,412.00
2018-12-22T09:43:39.642Z,384.00
2018-12-22T09:44:39.634Z,372.00
2018-12-22T09:45:39.647Z,368.00
2018-12-22T09:46:39.603Z,376.00
2018-12-22T09:47:39.593Z,324.00
2018-12-22T09:48:39.579Z,284.00
2018-12-22T09:49:39.573Z,276.00
2018-12-22T09:50:39.633Z,276.00
2018-12-22T09:51:39.588Z,272.00
2018-12-22T09:52:39.536Z,292.00
2018-12-22T09:53:39.527Z,292.00
2018-12-22T09:54:39.519Z,260.00
2018-12-22T09:55:39.511Z,252.00
2018-12-22T09:56:39.496Z,244.00
2018-12-22T09:57:39.521Z,216.00
2018-12-22T09:58:39.476Z,228.00
2018-12-22T09:59:39.462Z,292.00
2018-12-22T10:00:39.452Z,280.00
2018-12-22T10:01:39.442Z,220.00
2018-12-22T10:02:39.431Z,164.00
2018-12-22T10:03:39.456Z,156.00
2018-12-22T10:04:39.408Z,172.00
2018-12-22T10:05:39.399Z,172.00
2018-12-22T10:06:39.390Z,164.00
2018-12-22T10:07:39.378Z,156.00
2018-12-22T10:08:39.368Z,140.00
2018-12-22T10:09:39.393Z,136.00
2018-12-22T10:10:39.398Z,140.00
2018-12-22T10:11:39.337Z,140.00
2018-12-22T10:12:39.323Z,132.00
2018-12-22T10:13:39.314Z,132.00
2018-12-22T10:14:39.305Z,128.00
2018-12-22T10:15:39.318Z,120.00
2018-12-22T10:16:39.285Z,116.00
2018-12-22T10:17:39.271Z,120.00
2018-12-22T10:18:39.261Z,124.00
2018-12-22T10:19:39.250Z,116.00
2018-12-22T10:20:39.267Z,112.00
2018-12-22T10:21:39.230Z,116.00
2018-12-22T10:22:39.219Z,120.00
2018-12-22T10:23:39.210Z,128.00
2018-12-22T10:24:39.201Z,132.00
2018-12-22T10:25:39.286Z,132.00
2018-12-22T10:26:39.179Z,128.00
2018-12-22T10:27:39.167Z,132.00
2018-12-22T10:28:39.158Z,144.00
2018-12-22T10:29:39.148Z,152.00
2018-12-22T10:30:39.136Z,176.00
2018-12-22T10:31:39.166Z,188.00
2018-12-22T10:32:39.127Z,200.00
2018-12-22T10:33:39.104Z,240.00
2018-12-22T10:34:39.095Z,276.00
2018-12-22T10:35:39.087Z,280.00
2018-12-22T10:36:39.071Z,280.00
2018-12-22T10:37:39.102Z,276.00
2018-12-22T10:38:39.050Z,268.00
2018-12-22T10:39:39.041Z,256.00
2018-12-22T10:40:39.032Z,252.00
2018-12-22T10:41:39.020Z,252.00
2018-12-22T10:42:39.009Z,272.00
2018-12-22T10:43:39.035Z,268.00
2018-12-22T10:44:38.986Z,268.00
2018-12-22T10:45:38.976Z,292.00
2018-12-22T10:46:38.967Z,284.00
2018-12-22T10:47:38.960Z,268.00
2018-12-22T10:48:38.946Z,260.00
2018-12-22T10:49:38.973Z,256.00
2018-12-22T10:50:38.923Z,272.00
2018-12-22T10:51:38.912Z,292.00
2018-12-22T10:52:38.904Z,352.00
2018-12-22T10:53:38.893Z,336.00
2018-12-22T10:54:38.883Z,320.00
2018-12-22T10:55:38.895Z,320.00
2018-12-22T10:56:38.861Z,308.00
2018-12-22T10:57:38.851Z,304.00
2018-12-22T10:58:38.843Z,312.00
2018-12-22T10:59:38.830Z,336.00
2018-12-22T11:00:38.847Z,420.00
2018-12-22T11:01:38.811Z,436.00
2018-12-22T11:02:38.902Z,372.00
2018-12-22T11:03:38.786Z,372.00
2018-12-22T11:04:38.777Z,372.00
2018-12-22T11:05:38.790Z,384.00
2018-12-22T11:06:38.756Z,344.00
2018-12-22T11:07:38.746Z,348.00
2018-12-22T11:08:38.732Z,368.00
2018-12-22T11:09:38.724Z,424.00
2018-12-22T11:10:38.749Z,420.00
2018-12-22T11:11:38.705Z,464.00
2018-12-22T11:12:38.691Z,408.00
2018-12-22T11:13:38.682Z,408.00
2018-12-22T11:14:38.670Z,512.00
2018-12-22T11:15:38.659Z,532.00
2018-12-22T11:16:38.674Z,544.00
2018-12-22T11:17:38.637Z,564.00
2018-12-22T11:18:38.630Z,604.00
2018-12-22T11:19:38.619Z,612.00
2018-12-22T11:20:38.606Z,556.00
2018-12-22T11:21:38.709Z,532.00
2018-12-22T11:22:38.585Z,548.00
2018-12-22T11:23:38.573Z,540.00
2018-12-22T11:24:38.565Z,496.00
2018-12-22T11:25:38.554Z,512.00
2018-12-22T11:26:38.543Z,548.00
2018-12-22T11:27:38.569Z,520.00
2018-12-22T11:28:38.522Z,540.00
2018-12-22T11:29:38.513Z,556.00
2018-12-22T11:30:38.500Z,556.00
2018-12-22T11:31:38.491Z,524.00
2018-12-22T11:32:38.481Z,528.00
2018-12-22T11:33:38.504Z,552.00
2018-12-22T11:34:38.460Z,572.00
2018-12-22T11:35:38.451Z,612.00
2018-12-22T11:36:38.438Z,612.00
2018-12-22T11:37:38.428Z,596.00
2018-12-22T11:38:38.417Z,596.00
2018-12-22T11:39:38.441Z,632.00
2018-12-22T11:40:38.396Z,660.00
2018-12-22T11:41:38.389Z,692.00
2018-12-22T11:42:38.377Z,720.00
2018-12-22T11:43:38.363Z,740.00
2018-12-22T11:44:38.362Z,772.00
2018-12-22T11:45:38.367Z,852.00
2018-12-22T11:46:38.335Z,940.00
2018-12-22T11:47:38.324Z,964.00
2018-12-22T11:48:38.312Z,932.00
2018-12-22T11:49:38.300Z,968.00
2018-12-22T11:50:38.314Z,1004.00
2018-12-22T11:51:38.278Z,1024.00
2018-12-22T11:52:39.529Z,1060.00
2018-12-22T11:53:38.260Z,1116.00
2018-12-22T11:54:38.246Z,1160.00
2018-12-22T11:55:38.259Z,1136.00
2018-12-22T11:56:38.226Z,1064.00
2018-12-22T11:57:38.215Z,1000.00
2018-12-22T11:58:38.429Z,896.00
2018-12-22T11:59:38.199Z,740.00
2018-12-22T12:00:38.218Z,652.00
2018-12-22T12:01:43.512Z,604.00
2018-12-22T12:02:39.159Z,556.00
2018-12-22T12:03:38.149Z,500.00
2018-12-22T12:04:38.143Z,424.00
2018-12-22T12:05:38.131Z,420.00
2018-12-22T12:06:38.144Z,412.00
2018-12-22T12:07:38.107Z,400.00
2018-12-22T12:08:38.097Z,404.00
2018-12-22T12:09:38.086Z,392.00
2018-12-22T12:10:38.078Z,372.00
2018-12-22T12:11:38.103Z,356.00
2018-12-22T12:12:38.055Z,340.00
2018-12-22T12:13:38.045Z,328.00
2018-12-22T12:14:38.035Z,308.00
2018-12-22T12:15:38.024Z,308.00
2018-12-22T12:16:38.012Z,296.00
2018-12-22T12:17:38.040Z,256.00
2018-12-22T12:18:37.991Z,236.00
2018-12-22T12:19:38.010Z,236.00
2018-12-22T12:20:37.969Z,216.00
2018-12-22T12:21:37.957Z,212.00
2018-12-22T12:22:37.946Z,224.00
2018-12-22T12:23:37.973Z,220.00
2018-12-22T12:24:37.926Z,200.00
2018-12-22T12:25:37.914Z,200.00
2018-12-22T12:26:37.903Z,212.00
2018-12-22T12:27:37.893Z,240.00
2018-12-22T12:28:37.883Z,288.00
2018-12-22T12:29:37.908Z,388.00
2018-12-22T12:30:37.863Z,488.00
2018-12-22T12:31:37.852Z,520.00
2018-12-22T12:32:37.840Z,484.00
2018-12-22T12:33:37.829Z,452.00
2018-12-22T12:34:37.840Z,484.00
2018-12-22T12:35:37.832Z,572.00
2018-12-22T12:36:37.796Z,732.00
2018-12-22T12:37:37.786Z,844.00
2018-12-22T12:38:37.771Z,820.00
2018-12-22T12:39:37.762Z,744.00
2018-12-22T12:40:37.780Z,736.00
2018-12-22T12:41:37.741Z,724.00
2018-12-22T12:42:37.735Z,760.00
2018-12-22T12:43:37.718Z,736.00
2018-12-22T12:44:37.712Z,660.00
2018-12-22T12:45:37.723Z,556.00
2018-12-22T12:46:37.693Z,520.00
2018-12-22T12:47:37.677Z,492.00
2018-12-22T12:48:37.664Z,456.00
2018-12-22T12:49:37.656Z,444.00
2018-12-22T12:50:37.672Z,368.00
2018-12-22T12:51:37.635Z,344.00
2018-12-22T12:52:37.624Z,312.00
2018-12-22T12:53:37.613Z,292.00
2018-12-22T12:54:37.603Z,304.00
2018-12-22T12:55:37.632Z,296.00
2018-12-22T12:56:37.580Z,280.00